createdAt,value
2023-04-08T00:01:05.488Z,10.52
2023-04-08T00:11:08.149Z,12.30
2023-04-08T00:21:13.576Z,11.57
2023-04-08T00:31:16.405Z,9.45
2023-04-08T00:41:20.485Z,9.02
2023-04-08T00:51:23.221Z,9.82
2023-04-08T01:01:35.316Z,11.70
2023-04-08T01:11:41.744Z,14.70
2023-04-08T01:21:46.392Z,12.75
2023-04-08T01:31:51.135Z,11.00
2023-04-08T01:41:55.926Z,13.48
2023-04-08T01:52:01.566Z,12.30
2023-04-08T02:02:07.972Z,13.60
2023-04-08T02:12:12.753Z,13.35
2023-04-08T02:22:20.617Z,15.82
2023-04-08T02:32:26.444Z,16.58
2023-04-08T02:42:29.137Z,14.77
2023-04-08T02:52:33.205Z,13.80
2023-04-08T03:02:36.232Z,17.17
2023-04-08T03:12:40.543Z,17.77
2023-04-08T03:22:43.256Z,18.10
2023-04-08T03:32:47.551Z,17.75
2023-04-08T03:42:50.275Z,14.32
2023-04-08T03:52:54.323Z,19.55
2023-04-08T04:02:57.089Z,12.73
2023-04-08T04:13:01.198Z,14.02
2023-04-08T04:23:03.846Z,14.73
2023-04-08T04:33:08.152Z,14.85
2023-04-08T04:43:11.250Z,11.82
2023-04-08T04:53:15.396Z,12.35
2023-04-08T05:03:18.099Z,14.68
2023-04-08T05:13:28.844Z,13.55
2023-04-08T05:23:31.589Z,16.80
2023-04-08T05:33:35.582Z,17.65
2023-04-08T05:43:38.251Z,14.68
2023-04-08T05:53:42.416Z,14.75
2023-04-08T06:03:45.156Z,17.98
2023-04-08T06:13:49.278Z,16.27
2023-04-08T06:23:51.942Z,18.55
2023-04-08T06:33:55.948Z,20.15
2023-04-08T06:43:58.587Z,16.25
2023-04-08T06:54:02.668Z,17.60
2023-04-08T07:04:05.473Z,20.08
2023-04-08T07:14:09.514Z,17.42
2023-04-08T07:24:12.210Z,17.58
2023-04-08T07:34:16.586Z,22.20
2023-04-08T07:44:19.993Z,17.45
2023-04-08T07:54:24.108Z,19.42
2023-04-08T08:04:26.997Z,18.67
2023-04-08T08:14:31.169Z,22.90
2023-04-08T08:24:33.894Z,26.17
2023-04-08T08:34:38.176Z,21.80
2023-04-08T08:44:41.378Z,24.95
2023-04-08T08:54:46.362Z,30.00
2023-04-08T09:04:58.123Z,20.65
2023-04-08T09:15:10.265Z,25.45
2023-04-08T09:25:24.434Z,28.92
2023-04-08T09:35:28.474Z,44.38
2023-04-08T09:45:33.537Z,27.77
2023-04-08T09:55:38.878Z,28.63
2023-04-08T10:05:42.935Z,26.23
2023-04-08T10:15:47.749Z,29.38
2023-04-08T10:25:50.855Z,32.83
2023-04-08T10:36:09.605Z,37.95
2023-04-08T10:46:12.653Z,25.27
2023-04-08T10:56:17.718Z,35.08
2023-04-08T11:06:20.458Z,34.05
2023-04-08T11:16:25.905Z,38.53
2023-04-08T11:26:28.917Z,35.88
2023-04-08T11:36:35.199Z,28.20
2023-04-08T11:46:38.078Z,26.45
2023-04-08T11:56:48.018Z,27.73
2023-04-08T12:06:50.768Z,27.40
2023-04-08T12:16:54.766Z,28.98
2023-04-08T12:26:57.677Z,26.05
2023-04-08T12:37:02.406Z,25.90
2023-04-08T12:47:05.127Z,24.38
2023-04-08T12:57:09.189Z,22.08
2023-04-08T13:07:11.864Z,24.50
2023-04-08T13:17:15.869Z,24.40
2023-04-08T13:27:18.571Z,25.25
2023-04-08T13:37:22.590Z,23.42
2023-04-08T13:47:25.331Z,23.58
2023-04-08T13:57:29.552Z,26.95
2023-04-08T14:07:32.244Z,25.08
2023-04-08T14:17:37.084Z,32.25
2023-04-08T14:27:50.975Z,30.40
2023-04-08T14:38:01.750Z,35.88
2023-04-08T14:48:04.586Z,43.40
2023-04-08T14:58:08.659Z,33.17
2023-04-08T15:08:11.561Z,45.15
2023-04-08T15:18:15.655Z,46.75
2023-04-08T15:28:18.365Z,67.15
2023-04-08T15:38:22.431Z,35.47
2023-04-08T15:48:25.172Z,24.85
2023-04-08T15:58:29.142Z,29.92
2023-04-08T16:08:33.316Z,39.88
2023-04-08T16:18:37.844Z,26.73
2023-04-08T16:28:40.905Z,36.95
2023-04-08T16:38:44.896Z,45.28
2023-04-08T16:48:47.564Z,32.80
2023-04-08T16:58:52.486Z,143.38
2023-04-08T17:08:55.220Z,51.83
2023-04-08T17:18:59.422Z,77.82
2023-04-08T17:29:02.187Z,67.25
2023-04-08T17:39:06.257Z,86.90
2023-04-08T17:49:11.077Z,56.58
2023-04-08T17:59:15.344Z,41.80
2023-04-08T18:09:18.166Z,53.03
2023-04-08T18:19:22.576Z,81.05
2023-04-08T18:29:25.347Z,61.97
2023-04-08T18:39:29.324Z,81.40
2023-04-08T18:49:33.903Z,69.13
2023-04-08T18:59:38.391Z,67.03
2023-04-08T19:09:41.034Z,63.60
2023-04-08T19:19:45.162Z,72.72
2023-04-08T19:29:47.842Z,72.40
2023-04-08T19:39:51.841Z,88.50
2023-04-08T19:49:54.472Z,86.28
2023-04-08T19:59:58.455Z,104.80
2023-04-08T20:10:01.172Z,83.75
2023-04-08T20:20:06.537Z,80.53
2023-04-08T20:30:10.440Z,96.18
2023-04-08T20:40:16.391Z,104.45
2023-04-08T20:50:20.592Z,82.15
2023-04-08T21:00:24.606Z,89.28
2023-04-08T21:10:27.342Z,100.65
2023-04-08T21:20:32.288Z,100.10
2023-04-08T21:30:34.972Z,67.65
2023-04-08T21:40:39.014Z,54.15
2023-04-08T21:50:41.748Z,56.72
2023-04-08T22:00:46.294Z,56.25
2023-04-08T22:10:48.984Z,52.38
2023-04-08T22:20:53.017Z,51.65
2023-04-08T22:30:55.813Z,53.22
2023-04-08T22:40:59.863Z,46.45
2023-04-08T22:51:02.644Z,56.55
2023-04-08T23:01:16.942Z,51.03
2023-04-08T23:11:19.725Z,54.35
2023-04-08T23:21:23.758Z,59.60
2023-04-08T23:31:26.479Z,65.25
2023-04-08T23:41:30.583Z,67.45
2023-04-08T23:51:33.242Z,66.85
